createdAt,value
2023-03-28T00:02:19.767Z,34.01
2023-03-28T00:04:49.739Z,34.04
2023-03-28T00:07:16.342Z,34.18
2023-03-28T00:09:43.534Z,33.99
2023-03-28T00:12:10.196Z,33.88
2023-03-28T00:14:37.998Z,34.09
2023-03-28T00:17:07.698Z,34.02
2023-03-28T00:19:34.736Z,33.82
2023-03-28T00:22:01.361Z,33.90
2023-03-28T00:24:28.083Z,34.06
2023-03-28T00:26:55.652Z,33.79
2023-03-28T00:29:26.114Z,33.99
2023-03-28T00:31:52.832Z,33.75
2023-03-28T00:34:19.665Z,34.02
2023-03-28T00:36:46.374Z,34.00
2023-03-28T00:39:13.411Z,33.91
2023-03-28T00:41:42.641Z,33.71
2023-03-28T00:44:43.294Z,33.66
2023-03-28T00:47:12.911Z,33.62
2023-03-28T00:49:39.566Z,33.70
2023-03-28T00:52:07.606Z,33.68
2023-03-28T00:54:40.271Z,33.97
2023-03-28T00:57:09.432Z,33.69
2023-03-28T00:59:39.028Z,33.56
2023-03-28T01:02:06.408Z,33.63
2023-03-28T01:04:41.166Z,33.54
2023-03-28T01:07:08.205Z,33.56
2023-03-28T01:09:37.865Z,33.66
2023-03-28T01:12:05.386Z,33.68
2023-03-28T01:14:32.564Z,33.71
2023-03-28T01:17:03.518Z,33.46
2023-03-28T01:19:58.605Z,33.46
2023-03-28T01:22:57.040Z,33.58
2023-03-28T01:26:23.003Z,33.64
2023-03-28T01:29:26.900Z,33.36
2023-03-28T01:32:17.639Z,33.51
2023-03-28T01:35:39.852Z,33.40
2023-03-28T01:38:32.602Z,33.39
2023-03-28T01:41:30.420Z,33.42
2023-03-28T01:44:03.300Z,33.51
2023-03-28T01:46:36.684Z,33.39
2023-03-28T01:49:07.025Z,33.37
2023-03-28T01:52:20.467Z,33.25
2023-03-28T01:55:09.506Z,33.44
2023-03-28T01:58:03.523Z,33.21
2023-03-28T02:00:43.486Z,33.29
2023-03-28T02:03:22.130Z,33.15
2023-03-28T02:05:55.526Z,33.04
2023-03-28T02:08:28.643Z,33.32
2023-03-28T02:11:33.694Z,33.31
2023-03-28T02:14:18.827Z,33.06
2023-03-28T02:17:17.962Z,33.02
2023-03-28T02:20:15.670Z,33.39
2023-03-28T02:23:07.748Z,33.29
2023-03-28T02:25:52.859Z,33.34
2023-03-28T02:28:39.565Z,33.07
2023-03-28T02:31:15.501Z,33.35
2023-03-28T02:33:45.412Z,32.93
2023-03-28T02:37:00.229Z,33.21
2023-03-28T02:39:29.463Z,33.38
2023-03-28T02:42:28.306Z,32.98
2023-03-28T02:45:10.385Z,33.00
2023-03-28T02:48:02.074Z,33.13
2023-03-28T02:51:04.219Z,32.98
2023-03-28T02:53:44.788Z,33.14
2023-03-28T02:56:31.922Z,32.82
2023-03-28T02:59:08.697Z,33.10
2023-03-28T03:01:36.728Z,32.82
2023-03-28T03:04:04.038Z,32.77
2023-03-28T03:06:31.080Z,32.89
2023-03-28T03:08:57.878Z,32.81
2023-03-28T03:11:28.146Z,32.91
2023-03-28T03:13:55.542Z,32.74
2023-03-28T03:16:23.772Z,32.76
2023-03-28T03:18:50.912Z,32.68
2023-03-28T03:21:17.869Z,33.00
2023-03-28T03:23:44.550Z,32.68
2023-03-28T03:26:11.162Z,32.65
2023-03-28T03:28:41.226Z,33.06
2023-03-28T03:31:08.770Z,32.81
2023-03-28T03:33:50.547Z,32.62
2023-03-28T03:36:21.963Z,32.74
2023-03-28T03:38:48.667Z,32.82
2023-03-28T03:41:20.656Z,32.90
2023-03-28T03:43:48.847Z,32.56
2023-03-28T03:46:15.717Z,32.66
2023-03-28T03:48:49.544Z,32.65
2023-03-28T03:51:16.591Z,32.95
2023-03-28T03:53:43.289Z,32.50
2023-03-28T03:56:13.366Z,32.79
2023-03-28T03:58:55.016Z,32.63
2023-03-28T04:01:25.814Z,32.87
2023-03-28T04:03:54.198Z,32.61
2023-03-28T04:06:26.252Z,32.78
2023-03-28T04:08:53.811Z,32.65
2023-03-28T04:11:36.615Z,32.83
2023-03-28T04:14:04.609Z,32.82
2023-03-28T04:16:40.616Z,32.66
2023-03-28T04:19:10.983Z,32.75
2023-03-28T04:21:41.585Z,32.63
2023-03-28T04:24:08.934Z,32.49
2023-03-28T04:26:39.634Z,32.57
2023-03-28T04:29:10.544Z,32.79
2023-03-28T04:31:40.023Z,33.24
2023-03-28T04:34:29.940Z,33.98
2023-03-28T04:37:18.018Z,34.13
2023-03-28T04:39:53.976Z,34.48
2023-03-28T04:42:29.855Z,34.80
2023-03-28T04:45:23.458Z,34.69
2023-03-28T04:47:50.926Z,34.62
2023-03-28T04:50:22.232Z,34.67
2023-03-28T04:52:49.289Z,34.57
2023-03-28T04:55:17.002Z,34.53
2023-03-28T04:57:45.663Z,34.80
2023-03-28T05:00:13.311Z,34.66
2023-03-28T05:03:00.356Z,34.67
2023-03-28T05:05:30.136Z,34.35
2023-03-28T05:07:58.624Z,34.56
2023-03-28T05:10:25.660Z,34.30
2023-03-28T05:12:58.455Z,34.23
2023-03-28T05:15:26.398Z,34.32
2023-03-28T05:18:12.038Z,34.19
2023-03-28T05:20:39.621Z,34.31
2023-03-28T05:23:07.243Z,34.43
2023-03-28T05:25:37.222Z,34.19
2023-03-28T05:28:04.750Z,34.11
2023-03-28T05:30:32.755Z,33.80
2023-03-28T05:33:00.634Z,34.06
2023-03-28T05:35:29.245Z,34.01
2023-03-28T05:37:57.171Z,33.78
2023-03-28T05:40:23.827Z,34.00
2023-03-28T05:42:50.860Z,33.98
2023-03-28T05:45:20.336Z,34.15
2023-03-28T05:47:47.021Z,34.09
2023-03-28T05:50:14.396Z,34.13
2023-03-28T05:52:41.119Z,34.28
2023-03-28T05:55:08.398Z,34.13
2023-03-28T05:57:39.319Z,34.02
2023-03-28T06:00:13.967Z,34.12
2023-03-28T06:02:54.794Z,34.25
2023-03-28T06:05:31.475Z,34.10
2023-03-28T06:07:58.327Z,34.30
2023-03-28T06:10:28.211Z,34.51
2023-03-28T06:13:13.578Z,34.65
2023-03-28T06:15:42.066Z,34.70
2023-03-28T06:18:09.168Z,34.88
2023-03-28T06:20:42.826Z,35.33
2023-03-28T06:23:10.117Z,35.42
2023-03-28T06:25:36.914Z,35.19
2023-03-28T06:28:03.894Z,35.13
2023-03-28T06:30:32.055Z,34.95
2023-03-28T06:32:59.918Z,35.00
2023-03-28T06:35:26.707Z,35.14
2023-03-28T06:37:53.350Z,34.92
2023-03-28T06:40:26.410Z,34.69
2023-03-28T06:42:53.532Z,34.49
2023-03-28T06:45:29.258Z,34.43
2023-03-28T06:48:03.268Z,34.65
2023-03-28T06:50:56.304Z,34.42
2023-03-28T06:53:24.762Z,34.50
2023-03-28T06:55:52.542Z,34.10
2023-03-28T06:58:20.944Z,34.13
2023-03-28T07:01:09.746Z,34.39
2023-03-28T07:03:52.424Z,33.99
2023-03-28T07:06:22.324Z,33.80
2023-03-28T07:08:48.984Z,33.81
2023-03-28T07:11:18.724Z,33.86
2023-03-28T07:13:49.060Z,34.37
2023-03-28T07:16:16.871Z,34.26
2023-03-28T07:18:43.714Z,34.33
2023-03-28T07:21:18.214Z,34.38
2023-03-28T07:23:45.314Z,34.30
2023-03-28T07:26:15.086Z,34.24
2023-03-28T07:28:42.099Z,34.24
2023-03-28T07:31:08.962Z,34.33
2023-03-28T07:33:38.225Z,33.95
2023-03-28T07:36:13.137Z,34.33
2023-03-28T07:38:43.316Z,34.72
2023-03-28T07:41:11.339Z,35.50
2023-03-28T07:43:40.015Z,35.94
2023-03-28T07:46:09.571Z,36.69
2023-03-28T07:48:37.806Z,37.31
2023-03-28T07:51:06.552Z,37.65
2023-03-28T07:53:34.646Z,38.03
2023-03-28T07:56:01.667Z,38.13
2023-03-28T07:58:53.795Z,38.54
2023-03-28T08:01:23.905Z,38.87
2023-03-28T08:03:55.125Z,39.23
2023-03-28T08:06:32.017Z,39.27
2023-03-28T08:09:01.084Z,39.20
2023-03-28T08:11:40.642Z,39.44
2023-03-28T08:14:10.252Z,38.95
2023-03-28T08:16:37.467Z,39.01
2023-03-28T08:19:11.499Z,39.36
2023-03-28T08:22:02.457Z,39.41
2023-03-28T08:24:36.053Z,38.98
2023-03-28T08:27:19.898Z,38.17
2023-03-28T08:29:50.354Z,38.67
2023-03-28T08:32:17.200Z,38.59
2023-03-28T08:34:43.792Z,38.32
2023-03-28T08:37:24.958Z,38.43
2023-03-28T08:39:51.759Z,37.71
2023-03-28T08:42:41.432Z,37.28
2023-03-28T08:45:11.070Z,37.09
2023-03-28T08:47:47.824Z,36.83
2023-03-28T08:50:23.606Z,36.89
2023-03-28T08:52:52.319Z,36.68
2023-03-28T08:55:29.909Z,36.84
2023-03-28T08:57:57.950Z,37.09
2023-03-28T09:00:32.015Z,37.18
2023-03-28T09:02:59.200Z,37.11
2023-03-28T09:05:43.881Z,37.13
2023-03-28T09:08:43.377Z,36.71
2023-03-28T09:11:43.027Z,37.02
2023-03-28T09:14:41.191Z,37.25
2023-03-28T09:17:39.963Z,37.19
2023-03-28T09:20:29.576Z,36.85
2023-03-28T09:23:33.730Z,36.68
2023-03-28T09:26:23.642Z,36.41
2023-03-28T09:29:10.322Z,36.09
2023-03-28T09:31:46.793Z,35.94
2023-03-28T09:34:23.052Z,35.84
2023-03-28T09:39:43.490Z,36.03
2023-03-28T09:42:13.362Z,36.20
2023-03-28T09:45:12.203Z,36.51
2023-03-28T09:47:57.633Z,36.67
2023-03-28T09:50:27.871Z,36.49
2023-03-28T09:52:58.700Z,35.86
2023-03-28T09:55:28.459Z,36.30
2023-03-28T09:58:01.684Z,35.95
2023-03-28T10:00:29.714Z,35.55
2023-03-28T10:03:34.794Z,35.30
2023-03-28T10:06:22.966Z,35.14
2023-03-28T10:08:50.284Z,34.72
2023-03-28T10:11:24.783Z,35.11
2023-03-28T10:13:53.248Z,34.77
2023-03-28T10:16:28.918Z,34.81
2023-03-28T10:18:58.658Z,34.91
2023-03-28T10:21:42.120Z,34.86
2023-03-28T10:24:16.531Z,35.07
2023-03-28T10:26:49.751Z,35.00
2023-03-28T10:29:17.654Z,35.44
2023-03-28T10:31:49.909Z,35.33
2023-03-28T10:34:33.635Z,35.10
2023-03-28T10:37:32.612Z,34.67
2023-03-28T10:40:30.104Z,35.15
2023-03-28T10:43:35.361Z,34.46
2023-03-28T10:46:37.411Z,34.33
2023-03-28T10:49:21.670Z,33.97
2023-03-28T10:51:57.280Z,33.39
2023-03-28T10:54:48.211Z,33.17
2023-03-28T10:58:12.424Z,33.53
2023-03-28T11:01:01.747Z,33.16
2023-03-28T11:04:00.328Z,33.36
2023-03-28T11:06:44.448Z,33.20
2023-03-28T11:09:46.631Z,33.32
2023-03-28T11:13:26.510Z,33.27
2023-03-28T11:16:09.199Z,32.66
2023-03-28T11:18:54.899Z,32.62
2023-03-28T11:21:48.433Z,32.89
2023-03-28T11:24:15.275Z,33.07
2023-03-28T11:27:17.247Z,32.40
2023-03-28T11:30:05.438Z,32.08
2023-03-28T11:33:02.704Z,31.69
2023-03-28T11:35:36.551Z,31.42
2023-03-28T11:38:22.387Z,31.50
2023-03-28T11:41:24.259Z,31.85
2023-03-28T11:44:12.244Z,31.55
2023-03-28T11:46:51.078Z,31.59
2023-03-28T11:49:28.427Z,31.50
2023-03-28T11:52:00.897Z,31.45
2023-03-28T11:54:51.287Z,31.70
2023-03-28T11:57:29.199Z,31.65
2023-03-28T12:00:06.995Z,31.58
2023-03-28T12:02:51.650Z,31.62
2023-03-28T12:05:47.861Z,32.05
2023-03-28T12:08:26.966Z,31.57
2023-03-28T12:11:08.869Z,30.99
2023-03-28T12:14:08.747Z,30.89
2023-03-28T12:16:46.899Z,29.91
2023-03-28T12:19:22.382Z,29.86
2023-03-28T12:21:59.526Z,29.55
2023-03-28T12:24:53.830Z,29.50
2023-03-28T12:27:42.092Z,29.79
2023-03-28T12:30:25.767Z,29.73
2023-03-28T12:33:13.188Z,30.50
2023-03-28T12:35:51.163Z,30.99
2023-03-28T12:38:37.251Z,31.02
2023-03-28T12:41:24.297Z,31.18
2023-03-28T12:43:58.535Z,31.88
2023-03-28T12:46:53.560Z,31.89
2023-03-28T12:49:32.831Z,32.08
2023-03-28T12:52:11.638Z,32.06
2023-03-28T12:55:01.049Z,31.77
2023-03-28T12:57:45.737Z,31.80
2023-03-28T13:01:09.626Z,31.99
2023-03-28T13:03:51.252Z,32.01
2023-03-28T13:06:36.610Z,32.51
2023-03-28T13:09:30.292Z,33.15
2023-03-28T13:12:18.408Z,34.25
2023-03-28T13:14:58.542Z,35.03
2023-03-28T13:17:27.466Z,35.92
2023-03-28T13:20:12.722Z,35.74
2023-03-28T13:22:48.810Z,35.67
2023-03-28T13:25:54.048Z,35.64
2023-03-28T13:28:39.174Z,35.67
2023-03-28T13:31:09.040Z,35.76
2023-03-28T13:33:40.772Z,35.94
2023-03-28T13:36:08.389Z,36.30
2023-03-28T13:39:13.920Z,36.30
2023-03-28T13:41:46.363Z,36.39
2023-03-28T13:44:29.332Z,36.34
2023-03-28T13:46:57.133Z,35.94
2023-03-28T13:49:29.986Z,35.32
2023-03-28T13:52:19.267Z,35.73
2023-03-28T13:54:46.486Z,35.33
2023-03-28T13:57:17.599Z,35.34
2023-03-28T13:59:52.178Z,35.11
2023-03-28T14:02:30.091Z,35.42
2023-03-28T14:05:05.464Z,35.42
2023-03-28T14:07:32.104Z,35.26
2023-03-28T14:09:58.938Z,35.38
2023-03-28T14:12:29.414Z,35.42
2023-03-28T14:15:01.861Z,35.38
2023-03-28T14:17:33.798Z,35.21
2023-03-28T14:20:05.364Z,35.45
2023-03-28T14:22:43.217Z,35.12
2023-03-28T14:25:21.564Z,35.74
2023-03-28T14:27:54.605Z,36.23
2023-03-28T14:30:29.403Z,36.41
2023-03-28T14:33:01.105Z,36.63
2023-03-28T14:35:30.716Z,36.74
2023-03-28T14:38:01.991Z,36.77
2023-03-28T14:40:41.780Z,36.95
2023-03-28T14:43:13.133Z,36.89
2023-03-28T14:45:43.385Z,36.99
2023-03-28T14:48:15.960Z,36.91
2023-03-28T14:50:44.641Z,36.68
2023-03-28T14:53:24.381Z,36.60
2023-03-28T14:55:54.443Z,36.57
2023-03-28T14:58:25.064Z,36.65
2023-03-28T15:00:55.028Z,36.53
2023-03-28T15:03:35.623Z,36.63
2023-03-28T15:06:03.206Z,36.60
2023-03-28T15:08:39.358Z,36.90
2023-03-28T15:11:16.267Z,36.79
2023-03-28T15:13:49.051Z,36.80
2023-03-28T15:16:26.392Z,36.65
2023-03-28T15:19:06.991Z,36.76
2023-03-28T15:21:37.037Z,36.18
2023-03-28T15:24:05.417Z,37.08
2023-03-28T15:26:36.986Z,37.52
2023-03-28T15:29:06.948Z,37.59
2023-03-28T15:31:33.915Z,37.64
2023-03-28T15:34:00.604Z,37.94
2023-03-28T15:36:33.106Z,37.60
2023-03-28T15:39:21.076Z,37.68
2023-03-28T15:41:49.431Z,37.82
2023-03-28T15:44:27.706Z,37.53
2023-03-28T15:47:07.305Z,37.31
2023-03-28T15:49:38.555Z,37.14
2023-03-28T15:52:15.433Z,37.05
2023-03-28T15:54:44.716Z,36.93
2023-03-28T15:57:14.471Z,36.83
2023-03-28T15:59:51.123Z,36.42
2023-03-28T16:02:23.798Z,36.16
2023-03-28T16:05:15.295Z,35.92
2023-03-28T16:07:48.515Z,35.91
2023-03-28T16:10:23.607Z,35.84
2023-03-28T16:13:14.426Z,35.92
2023-03-28T16:16:07.848Z,35.85
2023-03-28T16:19:02.035Z,36.06
2023-03-28T16:21:28.752Z,36.21
2023-03-28T16:23:55.389Z,36.03
2023-03-28T16:26:22.114Z,35.90
2023-03-28T16:28:48.672Z,35.92
2023-03-28T16:31:15.759Z,36.15
2023-03-28T16:33:42.321Z,36.03
2023-03-28T16:36:12.499Z,35.81
2023-03-28T16:38:39.310Z,35.86
2023-03-28T16:41:06.203Z,35.82
2023-03-28T16:43:37.885Z,35.88
2023-03-28T16:46:05.049Z,35.83
2023-03-28T16:48:32.506Z,35.57
2023-03-28T16:51:04.680Z,35.90
2023-03-28T16:53:36.093Z,35.67
2023-03-28T16:56:03.921Z,35.64
2023-03-28T16:58:33.260Z,35.64
2023-03-28T17:01:09.370Z,35.76
2023-03-28T17:03:37.580Z,35.57
2023-03-28T17:06:06.450Z,35.52
2023-03-28T17:08:34.227Z,35.24
2023-03-28T17:11:11.027Z,35.83
2023-03-28T17:13:42.865Z,36.16
2023-03-28T17:16:10.757Z,36.87
2023-03-28T17:18:37.565Z,37.20
2023-03-28T17:21:12.819Z,37.60
2023-03-28T17:23:44.121Z,38.46
2023-03-28T17:26:12.887Z,39.12
2023-03-28T17:28:42.005Z,38.94
2023-03-28T17:31:11.594Z,39.41
2023-03-28T17:33:38.760Z,38.98
2023-03-28T17:36:19.016Z,38.93
2023-03-28T17:38:51.110Z,38.58
2023-03-28T17:41:18.911Z,38.68
2023-03-28T17:43:45.945Z,38.64
2023-03-28T17:46:13.011Z,38.36
2023-03-28T17:48:40.716Z,38.00
2023-03-28T17:51:10.143Z,38.22
2023-03-28T17:53:44.055Z,38.21
2023-03-28T17:56:11.697Z,38.85
2023-03-28T17:58:38.436Z,39.63
2023-03-28T18:01:09.686Z,40.07
2023-03-28T18:03:37.316Z,40.44
2023-03-28T18:06:30.945Z,41.10
2023-03-28T18:08:57.769Z,41.46
2023-03-28T18:11:24.676Z,42.24
2023-03-28T18:13:53.596Z,42.72
2023-03-28T18:16:20.294Z,43.00
2023-03-28T18:18:47.210Z,43.14
2023-03-28T18:21:13.940Z,42.86
2023-03-28T18:23:41.213Z,42.04
2023-03-28T18:26:08.079Z,37.30
2023-03-28T18:28:36.339Z,36.58
2023-03-28T18:31:17.520Z,36.20
2023-03-28T18:33:44.560Z,35.97
2023-03-28T18:36:12.648Z,36.22
2023-03-28T18:38:42.041Z,36.50
2023-03-28T18:41:09.828Z,36.48
2023-03-28T18:43:37.667Z,36.43
2023-03-28T18:46:08.131Z,36.89
2023-03-28T18:48:35.984Z,37.07
2023-03-28T18:51:06.558Z,37.06
2023-03-28T18:53:37.905Z,37.02
2023-03-28T18:56:06.290Z,37.36
2023-03-28T18:58:34.544Z,37.29
2023-03-28T19:01:05.740Z,37.46
2023-03-28T19:03:39.801Z,37.79
2023-03-28T19:06:11.440Z,37.60
2023-03-28T19:08:38.463Z,37.98
2023-03-28T19:11:08.750Z,38.12
2023-03-28T19:13:35.859Z,38.33
2023-03-28T19:16:08.846Z,38.24
2023-03-28T19:18:54.072Z,38.49
2023-03-28T19:21:23.876Z,38.75
2023-03-28T19:23:54.047Z,38.62
2023-03-28T19:26:22.259Z,38.70
2023-03-28T19:28:50.653Z,38.98
2023-03-28T19:31:24.140Z,38.96
2023-03-28T19:33:53.979Z,38.38
2023-03-28T19:36:20.861Z,37.92
2023-03-28T19:38:50.810Z,37.28
2023-03-28T19:41:26.542Z,36.89
2023-03-28T19:43:55.983Z,36.84
2023-03-28T19:46:35.409Z,36.68
2023-03-28T19:49:08.391Z,36.42
2023-03-28T19:51:35.382Z,36.42
2023-03-28T19:54:02.024Z,36.25
2023-03-28T19:56:31.982Z,36.37
2023-03-28T19:59:03.936Z,36.16
2023-03-28T20:01:30.948Z,36.08
2023-03-28T20:03:57.724Z,36.06
2023-03-28T20:06:24.438Z,35.96
2023-03-28T20:08:51.516Z,35.88
2023-03-28T20:13:50.446Z,36.03
2023-03-28T20:16:17.187Z,35.81
2023-03-28T20:18:44.537Z,35.79
2023-03-28T20:21:13.237Z,35.96
2023-03-28T20:23:42.885Z,36.15
2023-03-28T20:26:17.486Z,36.14
2023-03-28T20:28:46.705Z,36.22
2023-03-28T20:31:14.815Z,36.31
2023-03-28T20:33:41.882Z,36.56
2023-03-28T20:36:08.795Z,36.42
2023-03-28T20:38:35.650Z,36.58
2023-03-28T20:41:02.572Z,36.43
2023-03-28T20:43:29.541Z,36.48
2023-03-28T20:46:04.217Z,36.35
2023-03-28T20:48:36.992Z,36.06
2023-03-28T20:51:17.462Z,36.22
2023-03-28T20:53:59.069Z,35.97
2023-03-28T20:56:30.238Z,36.27
2023-03-28T20:58:58.796Z,36.38
2023-03-28T21:01:30.422Z,36.68
2023-03-28T21:04:00.254Z,36.67
2023-03-28T21:06:35.943Z,37.12
2023-03-28T21:09:05.651Z,37.29
2023-03-28T21:11:35.407Z,37.33
2023-03-28T21:14:03.042Z,37.43
2023-03-28T21:16:31.721Z,36.80
2023-03-28T21:19:00.071Z,36.38
2023-03-28T21:21:29.728Z,36.13
2023-03-28T21:23:57.124Z,35.98
2023-03-28T21:26:24.586Z,36.10
2023-03-28T21:28:54.980Z,35.83
2023-03-28T21:31:25.679Z,35.81
2023-03-28T21:33:55.272Z,35.76
2023-03-28T21:36:21.952Z,35.68
2023-03-28T21:38:48.713Z,35.44
2023-03-28T21:41:16.696Z,35.34
2023-03-28T21:43:43.429Z,35.39
2023-03-28T21:46:11.300Z,35.22
2023-03-28T21:48:38.684Z,35.17
2023-03-28T21:51:06.222Z,35.34
2023-03-28T21:53:36.263Z,34.96
2023-03-28T21:56:04.280Z,35.16
2023-03-28T21:58:33.659Z,35.72
2023-03-28T22:01:04.709Z,36.09
2023-03-28T22:03:31.957Z,36.39
2023-03-28T22:05:58.673Z,36.52
2023-03-28T22:08:25.584Z,36.28
2023-03-28T22:10:58.416Z,36.52
2023-03-28T22:13:28.979Z,36.32
2023-03-28T22:15:59.653Z,36.25
2023-03-28T22:18:27.233Z,36.10
2023-03-28T22:20:54.420Z,35.67
2023-03-28T22:23:24.454Z,35.93
2023-03-28T22:25:52.912Z,35.70
2023-03-28T22:28:24.007Z,36.21
2023-03-28T22:30:53.765Z,36.55
2023-03-28T22:33:20.439Z,36.63
2023-03-28T22:35:47.889Z,36.21
2023-03-28T22:38:14.591Z,36.32
2023-03-28T22:40:41.173Z,36.11
2023-03-28T22:43:08.115Z,36.10
2023-03-28T22:45:34.759Z,36.00
2023-03-28T22:48:03.266Z,35.89
2023-03-28T22:50:30.098Z,35.60
2023-03-28T22:52:57.080Z,35.55
2023-03-28T22:55:24.349Z,35.83
2023-03-28T22:57:52.914Z,35.52
2023-03-28T23:00:23.340Z,35.35
2023-03-28T23:02:51.693Z,35.58
2023-03-28T23:05:19.441Z,35.61
2023-03-28T23:07:46.135Z,35.45
2023-03-28T23:10:15.353Z,35.17
2023-03-28T23:12:43.190Z,35.48
2023-03-28T23:15:10.345Z,35.16
2023-03-28T23:17:37.535Z,35.15
2023-03-28T23:20:15.926Z,35.22
2023-03-28T23:22:44.760Z,35.26
2023-03-28T23:25:13.290Z,35.21
2023-03-28T23:27:43.618Z,35.03
2023-03-28T23:30:13.617Z,35.16
2023-03-28T23:32:40.378Z,34.97
2023-03-28T23:35:07.760Z,35.08
2023-03-28T23:37:37.996Z,35.24
2023-03-28T23:40:06.272Z,34.89
2023-03-28T23:42:32.808Z,35.09
2023-03-28T23:44:59.329Z,34.96
2023-03-28T23:47:28.514Z,34.85
2023-03-28T23:49:55.436Z,34.99
2023-03-28T23:52:21.931Z,34.99
2023-03-28T23:54:48.631Z,34.92
2023-03-28T23:57:15.253Z,35.11
2023-03-28T23:59:41.873Z,35.13
